sensor_id;sensor_type;location;lat;lon;timestamp;temperature;humidity
23122;DHT22;11730;51.248;22.534;2023-10-31T00:01:45;11.60;1.00
23122;DHT22;11730;51.248;22.534;2023-10-31T00:04:12;11.60;1.00
23122;DHT22;11730;51.248;22.534;2023-10-31T00:06:39;11.50;1.00
23122;DHT22;11730;51.248;22.534;2023-10-31T00:09:06;11.60;1.00
23122;DHT22;11730;51.248;22.534;2023-10-31T00:11:32;11.50;1.00
23122;DHT22;11730;51.248;22.534;2023-10-31T00:13:59;11.50;1.00
23122;DHT22;11730;51.248;22.534;2023-10-31T00:16:26;11.60;1.00
23122;DHT22;11730;51.248;22.534;2023-10-31T00:18:53;11.50;1.00
23122;DHT22;11730;51.248;22.534;2023-10-31T00:21:20;11.50;1.00
23122;DHT22;11730;51.248;22.534;2023-10-31T00:23:48;11.50;1.00
23122;DHT22;11730;51.248;22.534;2023-10-31T00:26:15;11.50;1.00
23122;DHT22;11730;51.248;22.534;2023-10-31T00:28:42;11.40;1.00
23122;DHT22;11730;51.248;22.534;2023-10-31T00:31:09;11.40;1.00
23122;DHT22;11730;51.248;22.534;2023-10-31T00:33:38;11.50;1.00
23122;DHT22;11730;51.248;22.534;2023-10-31T00:36:05;11.50;1.00
23122;DHT22;11730;51.248;22.534;2023-10-31T00:38:32;11.60;1.00
23122;DHT22;11730;51.248;22.534;2023-10-31T00:40:59;11.50;1.00
23122;DHT22;11730;51.248;22.534;2023-10-31T00:43:26;11.50;1.00
23122;DHT22;11730;51.248;22.534;2023-10-31T00:45:53;11.50;1.00
23122;DHT22;11730;51.248;22.534;2023-10-31T00:48:20;11.50;1.00
23122;DHT22;11730;51.248;22.534;2023-10-31T00:50:48;11.40;1.00
23122;DHT22;11730;51.248;22.534;2023-10-31T00:53:14;11.50;1.00
23122;DHT22;11730;51.248;22.534;2023-10-31T00:55:43;11.50;1.00
23122;DHT22;11730;51.248;22.534;2023-10-31T00:58:11;11.60;1.00
23122;DHT22;11730;51.248;22.534;2023-10-31T01:00:38;11.60;1.00
23122;DHT22;11730;51.248;22.534;2023-10-31T01:03:05;11.60;1.00
23122;DHT22;11730;51.248;22.534;2023-10-31T01:05:32;11.60;1.00
23122;DHT22;11730;51.248;22.534;2023-10-31T01:07:59;11.60;1.00
23122;DHT22;11730;51.248;22.534;2023-10-31T01:10:26;11.60;1.00
23122;DHT22;11730;51.248;22.534;2023-10-31T01:12:53;11.60;1.00
23122;DHT22;11730;51.248;22.534;2023-10-31T01:15:19;11.60;1.00
23122;DHT22;11730;51.248;22.534;2023-10-31T01:17:47;11.60;1.00
23122;DHT22;11730;51.248;22.534;2023-10-31T01:20:14;11.50;1.00
23122;DHT22;11730;51.248;22.534;2023-10-31T01:22:41;11.50;1.00
23122;DHT22;11730;51.248;22.534;2023-10-31T01:25:08;11.50;1.00
23122;DHT22;11730;51.248;22.534;2023-10-31T01:27:35;11.50;1.00
23122;DHT22;11730;51.248;22.534;2023-10-31T01:30:02;11.60;1.00
23122;DHT22;11730;51.248;22.534;2023-10-31T01:32:30;11.60;1.00
23122;DHT22;11730;51.248;22.534;2023-10-31T01:34:57;11.60;1.00
23122;DHT22;11730;51.248;22.534;2023-10-31T01:37:24;11.60;1.00
23122;DHT22;11730;51.248;22.534;2023-10-31T01:39:51;11.60;1.00
23122;DHT22;11730;51.248;22.534;2023-10-31T01:42:19;11.70;1.00
23122;DHT22;11730;51.248;22.534;2023-10-31T01:44:45;11.70;1.00
23122;DHT22;11730;51.248;22.534;2023-10-31T01:47:13;11.60;1.00
23122;DHT22;11730;51.248;22.534;2023-10-31T01:49:40;11.70;1.00
23122;DHT22;11730;51.248;22.534;2023-10-31T01:52:08;11.70;1.00
23122;DHT22;11730;51.248;22.534;2023-10-31T01:54:35;11.80;1.00
23122;DHT22;11730;51.248;22.534;2023-10-31T01:57:04;11.70;1.00
23122;DHT22;11730;51.248;22.534;2023-10-31T01:59:32;11.80;1.00
23122;DHT22;11730;51.248;22.534;2023-10-31T02:01:59;11.70;1.00
23122;DHT22;11730;51.248;22.534;2023-10-31T02:04:27;11.60;1.00
23122;DHT22;11730;51.248;22.534;2023-10-31T02:06:54;11.70;1.00
23122;DHT22;11730;51.248;22.534;2023-10-31T02:09:21;11.80;1.00
23122;DHT22;11730;51.248;22.534;2023-10-31T02:11:53;11.80;1.00
23122;DHT22;11730;51.248;22.534;2023-10-31T02:14:22;11.80;1.00
23122;DHT22;11730;51.248;22.534;2023-10-31T02:16:49;11.80;1.00
23122;DHT22;11730;51.248;22.534;2023-10-31T02:19:19;11.80;1.00
23122;DHT22;11730;51.248;22.534;2023-10-31T02:21:47;11.90;1.00
23122;DHT22;11730;51.248;22.534;2023-10-31T02:24:14;12.00;1.00
23122;DHT22;11730;51.248;22.534;2023-10-31T02:26:41;12.00;1.00
23122;DHT22;11730;51.248;22.534;2023-10-31T02:29:08;12.00;1.00
23122;DHT22;11730;51.248;22.534;2023-10-31T02:31:35;12.00;1.00
23122;DHT22;11730;51.248;22.534;2023-10-31T02:34:02;12.10;1.00
23122;DHT22;11730;51.248;22.534;2023-10-31T02:36:29;12.10;1.00
23122;DHT22;11730;51.248;22.534;2023-10-31T02:38:55;12.10;1.00
23122;DHT22;11730;51.248;22.534;2023-10-31T02:41:23;12.20;1.00
23122;DHT22;11730;51.248;22.534;2023-10-31T02:43:50;12.20;1.00
23122;DHT22;11730;51.248;22.534;2023-10-31T02:46:17;12.20;1.00
23122;DHT22;11730;51.248;22.534;2023-10-31T02:48:46;12.20;1.00
23122;DHT22;11730;51.248;22.534;2023-10-31T02:51:13;12.30;1.00
23122;DHT22;11730;51.248;22.534;2023-10-31T02:53:40;12.30;1.00
23122;DHT22;11730;51.248;22.534;2023-10-31T02:56:07;12.30;1.00
23122;DHT22;11730;51.248;22.534;2023-10-31T02:58:34;12.40;1.00
23122;DHT22;11730;51.248;22.534;2023-10-31T03:01:01;12.50;1.00
23122;DHT22;11730;51.248;22.534;2023-10-31T03:03:28;12.50;1.00
23122;DHT22;11730;51.248;22.534;2023-10-31T03:05:55;12.50;1.00
23122;DHT22;11730;51.248;22.534;2023-10-31T03:08:22;12.50;1.00
23122;DHT22;11730;51.248;22.534;2023-10-31T03:10:49;12.50;1.00
23122;DHT22;11730;51.248;22.534;2023-10-31T03:13:19;12.60;1.00
23122;DHT22;11730;51.248;22.534;2023-10-31T03:15:46;12.60;1.00
23122;DHT22;11730;51.248;22.534;2023-10-31T03:18:14;12.60;1.00
23122;DHT22;11730;51.248;22.534;2023-10-31T03:20:45;12.60;1.00
23122;DHT22;11730;51.248;22.534;2023-10-31T03:23:13;12.60;1.00
23122;DHT22;11730;51.248;22.534;2023-10-31T03:25:40;12.60;1.00
23122;DHT22;11730;51.248;22.534;2023-10-31T03:28:19;12.60;1.00
23122;DHT22;11730;51.248;22.534;2023-10-31T03:30:49;12.60;1.00
23122;DHT22;11730;51.248;22.534;2023-10-31T03:33:16;12.50;1.00
23122;DHT22;11730;51.248;22.534;2023-10-31T03:35:44;12.60;1.00
23122;DHT22;11730;51.248;22.534;2023-10-31T03:38:12;12.40;1.00
23122;DHT22;11730;51.248;22.534;2023-10-31T03:40:39;12.50;1.00
23122;DHT22;11730;51.248;22.534;2023-10-31T03:43:06;12.50;1.00
23122;DHT22;11730;51.248;22.534;2023-10-31T03:45:33;12.60;1.00
23122;DHT22;11730;51.248;22.534;2023-10-31T03:47:59;12.50;1.00
23122;DHT22;11730;51.248;22.534;2023-10-31T03:50:27;12.60;1.00
23122;DHT22;11730;51.248;22.534;2023-10-31T03:52:53;12.60;1.00
23122;DHT22;11730;51.248;22.534;2023-10-31T03:55:20;12.60;1.00
23122;DHT22;11730;51.248;22.534;2023-10-31T03:57:47;12.70;1.00
23122;DHT22;11730;51.248;22.534;2023-10-31T04:00:14;12.60;1.00
23122;DHT22;11730;51.248;22.534;2023-10-31T04:02:41;12.80;1.00
23122;DHT22;11730;51.248;22.534;2023-10-31T04:05:08;12.80;1.00
23122;DHT22;11730;51.248;22.534;2023-10-31T04:07:36;12.80;1.00
23122;DHT22;11730;51.248;22.534;2023-10-31T04:10:03;12.90;1.00
23122;DHT22;11730;51.248;22.534;2023-10-31T04:12:30;12.90;1.00
23122;DHT22;11730;51.248;22.534;2023-10-31T04:14:57;12.90;1.00
23122;DHT22;11730;51.248;22.534;2023-10-31T04:17:23;13.00;1.00
23122;DHT22;11730;51.248;22.534;2023-10-31T04:19:50;13.10;1.00
23122;DHT22;11730;51.248;22.534;2023-10-31T04:22:17;13.20;1.00
23122;DHT22;11730;51.248;22.534;2023-10-31T04:24:44;13.30;1.00
23122;DHT22;11730;51.248;22.534;2023-10-31T04:27:11;13.40;1.00
23122;DHT22;11730;51.248;22.534;2023-10-31T04:29:38;13.50;1.00
23122;DHT22;11730;51.248;22.534;2023-10-31T04:32:05;13.60;1.00
23122;DHT22;11730;51.248;22.534;2023-10-31T04:34:33;13.80;1.00
23122;DHT22;11730;51.248;22.534;2023-10-31T04:37:00;13.90;1.00
23122;DHT22;11730;51.248;22.534;2023-10-31T04:39:26;14.00;1.00
23122;DHT22;11730;51.248;22.534;2023-10-31T04:41:54;14.10;1.00
23122;DHT22;11730;51.248;22.534;2023-10-31T04:44:21;14.20;1.00
23122;DHT22;11730;51.248;22.534;2023-10-31T04:46:48;14.30;1.00
23122;DHT22;11730;51.248;22.534;2023-10-31T04:51:43;14.30;1.00
23122;DHT22;11730;51.248;22.534;2023-10-31T04:54:10;14.30;1.00
23122;DHT22;11730;51.248;22.534;2023-10-31T04:56:37;14.40;1.00
23122;DHT22;11730;51.248;22.534;2023-10-31T04:59:04;14.50;1.00
23122;DHT22;11730;51.248;22.534;2023-10-31T05:01:30;14.40;1.00
23122;DHT22;11730;51.248;22.534;2023-10-31T05:03:57;14.50;99.90
23122;DHT22;11730;51.248;22.534;2023-10-31T05:06:38;14.50;99.90
23122;DHT22;11730;51.248;22.534;2023-10-31T05:09:05;14.60;99.90
23122;DHT22;11730;51.248;22.534;2023-10-31T05:11:32;14.60;99.90
23122;DHT22;11730;51.248;22.534;2023-10-31T05:13:59;14.60;99.90
23122;DHT22;11730;51.248;22.534;2023-10-31T05:16:26;14.70;99.90
23122;DHT22;11730;51.248;22.534;2023-10-31T05:18:53;14.70;99.90
23122;DHT22;11730;51.248;22.534;2023-10-31T05:21:20;14.70;99.90
23122;DHT22;11730;51.248;22.534;2023-10-31T05:23:47;14.80;99.90
23122;DHT22;11730;51.248;22.534;2023-10-31T05:26:14;14.70;99.90
23122;DHT22;11730;51.248;22.534;2023-10-31T05:28:41;14.80;99.90
23122;DHT22;11730;51.248;22.534;2023-10-31T05:31:08;14.80;99.90
23122;DHT22;11730;51.248;22.534;2023-10-31T05:33:35;14.80;99.90
23122;DHT22;11730;51.248;22.534;2023-10-31T05:36:02;14.90;99.90
23122;DHT22;11730;51.248;22.534;2023-10-31T05:38:29;15.00;99.90
23122;DHT22;11730;51.248;22.534;2023-10-31T05:40:56;15.00;99.90
23122;DHT22;11730;51.248;22.534;2023-10-31T05:43:23;15.10;99.90
23122;DHT22;11730;51.248;22.534;2023-10-31T05:45:49;15.10;99.90
23122;DHT22;11730;51.248;22.534;2023-10-31T05:48:16;15.10;99.90
23122;DHT22;11730;51.248;22.534;2023-10-31T05:50:44;15.10;99.90
23122;DHT22;11730;51.248;22.534;2023-10-31T05:53:11;15.20;99.90
23122;DHT22;11730;51.248;22.534;2023-10-31T05:55:39;15.30;99.90
23122;DHT22;11730;51.248;22.534;2023-10-31T05:58:06;15.40;99.90
23122;DHT22;11730;51.248;22.534;2023-10-31T06:00:33;15.40;99.90
23122;DHT22;11730;51.248;22.534;2023-10-31T06:03:01;15.50;99.90
23122;DHT22;11730;51.248;22.534;2023-10-31T06:05:29;15.50;99.90
23122;DHT22;11730;51.248;22.534;2023-10-31T06:07:56;15.60;99.90
23122;DHT22;11730;51.248;22.534;2023-10-31T06:10:23;15.70;99.90
23122;DHT22;11730;51.248;22.534;2023-10-31T06:12:50;15.70;99.90
23122;DHT22;11730;51.248;22.534;2023-10-31T06:15:17;15.70;99.90
23122;DHT22;11730;51.248;22.534;2023-10-31T06:17:44;15.80;99.90
23122;DHT22;11730;51.248;22.534;2023-10-31T06:20:11;15.90;99.90
23122;DHT22;11730;51.248;22.534;2023-10-31T06:22:38;15.90;99.90
23122;DHT22;11730;51.248;22.534;2023-10-31T06:25:05;15.90;99.90
23122;DHT22;11730;51.248;22.534;2023-10-31T06:27:32;16.00;99.90
23122;DHT22;11730;51.248;22.534;2023-10-31T06:29:59;16.00;99.90
23122;DHT22;11730;51.248;22.534;2023-10-31T06:32:46;16.00;99.90
23122;DHT22;11730;51.248;22.534;2023-10-31T06:35:13;16.10;99.90
23122;DHT22;11730;51.248;22.534;2023-10-31T06:37:40;16.20;99.90
23122;DHT22;11730;51.248;22.534;2023-10-31T06:40:07;16.20;99.90
23122;DHT22;11730;51.248;22.534;2023-10-31T06:42:35;16.40;99.90
23122;DHT22;11730;51.248;22.534;2023-10-31T06:45:03;16.50;99.90
23122;DHT22;11730;51.248;22.534;2023-10-31T06:47:30;16.60;99.90
23122;DHT22;11730;51.248;22.534;2023-10-31T06:49:57;16.60;99.90
23122;DHT22;11730;51.248;22.534;2023-10-31T06:52:24;16.70;99.90
23122;DHT22;11730;51.248;22.534;2023-10-31T06:54:51;16.70;99.90
23122;DHT22;11730;51.248;22.534;2023-10-31T06:57:18;16.70;99.90
23122;DHT22;11730;51.248;22.534;2023-10-31T06:59:45;16.80;99.90
23122;DHT22;11730;51.248;22.534;2023-10-31T07:02:13;16.90;99.90
23122;DHT22;11730;51.248;22.534;2023-10-31T07:04:40;16.80;99.90
23122;DHT22;11730;51.248;22.534;2023-10-31T07:07:07;16.90;99.90
23122;DHT22;11730;51.248;22.534;2023-10-31T07:09:34;16.80;99.90
23122;DHT22;11730;51.248;22.534;2023-10-31T07:12:01;16.70;99.90
23122;DHT22;11730;51.248;22.534;2023-10-31T07:14:28;16.80;99.90
23122;DHT22;11730;51.248;22.534;2023-10-31T07:16:56;16.80;99.90
23122;DHT22;11730;51.248;22.534;2023-10-31T07:19:23;16.90;99.90
23122;DHT22;11730;51.248;22.534;2023-10-31T07:21:50;16.80;99.90
23122;DHT22;11730;51.248;22.534;2023-10-31T07:24:17;16.80;99.90
23122;DHT22;11730;51.248;22.534;2023-10-31T07:26:44;16.70;99.90
23122;DHT22;11730;51.248;22.534;2023-10-31T07:29:11;16.80;99.90
23122;DHT22;11730;51.248;22.534;2023-10-31T07:31:39;16.70;99.90
23122;DHT22;11730;51.248;22.534;2023-10-31T07:34:06;16.80;99.90
23122;DHT22;11730;51.248;22.534;2023-10-31T07:36:34;16.70;99.90
23122;DHT22;11730;51.248;22.534;2023-10-31T07:39:01;16.70;99.90
23122;DHT22;11730;51.248;22.534;2023-10-31T07:41:30;16.70;99.90
23122;DHT22;11730;51.248;22.534;2023-10-31T07:43:57;16.70;99.90
23122;DHT22;11730;51.248;22.534;2023-10-31T07:46:24;16.70;99.90
23122;DHT22;11730;51.248;22.534;2023-10-31T07:48:51;16.70;99.90
23122;DHT22;11730;51.248;22.534;2023-10-31T07:51:18;16.60;99.90
23122;DHT22;11730;51.248;22.534;2023-10-31T07:53:45;16.70;99.90
23122;DHT22;11730;51.248;22.534;2023-10-31T07:56:17;16.70;99.90
23122;DHT22;11730;51.248;22.534;2023-10-31T07:58:44;16.60;99.90
23122;DHT22;11730;51.248;22.534;2023-10-31T08:01:12;16.70;99.90
23122;DHT22;11730;51.248;22.534;2023-10-31T08:03:39;16.70;99.90
23122;DHT22;11730;51.248;22.534;2023-10-31T08:06:06;16.70;99.90
23122;DHT22;11730;51.248;22.534;2023-10-31T08:08:34;16.70;99.90
23122;DHT22;11730;51.248;22.534;2023-10-31T08:11:01;16.70;99.90
23122;DHT22;11730;51.248;22.534;2023-10-31T08:13:28;16.80;99.90
23122;DHT22;11730;51.248;22.534;2023-10-31T08:15:55;16.90;99.90
23122;DHT22;11730;51.248;22.534;2023-10-31T08:18:23;16.70;99.90
23122;DHT22;11730;51.248;22.534;2023-10-31T08:20:50;16.80;99.90
23122;DHT22;11730;51.248;22.534;2023-10-31T08:23:17;16.80;99.90
23122;DHT22;11730;51.248;22.534;2023-10-31T08:25:44;16.90;99.90
23122;DHT22;11730;51.248;22.534;2023-10-31T08:28:12;17.00;99.90
23122;DHT22;11730;51.248;22.534;2023-10-31T08:30:38;16.90;99.90
23122;DHT22;11730;51.248;22.534;2023-10-31T08:33:08;16.90;99.90
23122;DHT22;11730;51.248;22.534;2023-10-31T08:35:37;16.90;99.90
23122;DHT22;11730;51.248;22.534;2023-10-31T08:38:04;17.00;99.90
23122;DHT22;11730;51.248;22.534;2023-10-31T08:40:31;17.00;99.90
23122;DHT22;11730;51.248;22.534;2023-10-31T08:42:58;17.00;99.90
23122;DHT22;11730;51.248;22.534;2023-10-31T08:45:25;17.00;99.90
23122;DHT22;11730;51.248;22.534;2023-10-31T08:47:52;17.00;99.90
23122;DHT22;11730;51.248;22.534;2023-10-31T08:50:19;16.90;99.90
23122;DHT22;11730;51.248;22.534;2023-10-31T08:52:46;17.00;99.90
23122;DHT22;11730;51.248;22.534;2023-10-31T08:55:13;17.10;99.90
23122;DHT22;11730;51.248;22.534;2023-10-31T08:57:40;17.10;99.90
23122;DHT22;11730;51.248;22.534;2023-10-31T09:00:07;17.20;99.90
23122;DHT22;11730;51.248;22.534;2023-10-31T09:02:34;17.20;99.90
23122;DHT22;11730;51.248;22.534;2023-10-31T09:05:01;17.20;99.90
23122;DHT22;11730;51.248;22.534;2023-10-31T09:07:28;17.20;99.90
23122;DHT22;11730;51.248;22.534;2023-10-31T09:09:55;17.20;99.90
23122;DHT22;11730;51.248;22.534;2023-10-31T09:12:22;17.30;99.90
23122;DHT22;11730;51.248;22.534;2023-10-31T09:14:49;17.20;99.90
23122;DHT22;11730;51.248;22.534;2023-10-31T09:17:16;17.30;99.90
23122;DHT22;11730;51.248;22.534;2023-10-31T09:19:43;17.30;99.90
23122;DHT22;11730;51.248;22.534;2023-10-31T09:22:10;17.30;99.90
23122;DHT22;11730;51.248;22.534;2023-10-31T09:24:37;17.20;99.90
23122;DHT22;11730;51.248;22.534;2023-10-31T09:27:04;17.30;99.90
23122;DHT22;11730;51.248;22.534;2023-10-31T09:29:31;17.20;99.90
23122;DHT22;11730;51.248;22.534;2023-10-31T09:31:58;17.20;99.90
23122;DHT22;11730;51.248;22.534;2023-10-31T09:34:26;17.20;99.90
23122;DHT22;11730;51.248;22.534;2023-10-31T09:36:53;17.00;99.90
23122;DHT22;11730;51.248;22.534;2023-10-31T09:39:20;16.90;99.90
23122;DHT22;11730;51.248;22.534;2023-10-31T09:41:47;16.90;99.90
23122;DHT22;11730;51.248;22.534;2023-10-31T09:44:17;17.00;99.90
23122;DHT22;11730;51.248;22.534;2023-10-31T09:46:45;17.00;99.90
23122;DHT22;11730;51.248;22.534;2023-10-31T09:49:12;17.00;99.90
23122;DHT22;11730;51.248;22.534;2023-10-31T09:51:39;17.00;99.90
23122;DHT22;11730;51.248;22.534;2023-10-31T09:54:06;17.10;99.90
23122;DHT22;11730;51.248;22.534;2023-10-31T09:56:34;17.10;99.90
23122;DHT22;11730;51.248;22.534;2023-10-31T09:59:02;17.10;99.90
23122;DHT22;11730;51.248;22.534;2023-10-31T10:01:32;17.20;99.90
23122;DHT22;11730;51.248;22.534;2023-10-31T10:04:00;17.20;99.90
23122;DHT22;11730;51.248;22.534;2023-10-31T10:06:27;17.20;99.90
23122;DHT22;11730;51.248;22.534;2023-10-31T10:08:58;17.30;99.90
23122;DHT22;11730;51.248;22.534;2023-10-31T10:11:25;17.20;99.90
23122;DHT22;11730;51.248;22.534;2023-10-31T10:13:52;17.30;99.90
23122;DHT22;11730;51.248;22.534;2023-10-31T10:16:30;17.30;99.90
23122;DHT22;11730;51.248;22.534;2023-10-31T10:19:09;17.30;99.90
23122;DHT22;11730;51.248;22.534;2023-10-31T10:21:47;17.30;99.90
23122;DHT22;11730;51.248;22.534;2023-10-31T10:24:15;17.30;99.90
23122;DHT22;11730;51.248;22.534;2023-10-31T10:26:42;17.30;99.90
23122;DHT22;11730;51.248;22.534;2023-10-31T10:29:09;17.30;99.90
23122;DHT22;11730;51.248;22.534;2023-10-31T10:31:36;17.40;99.90
23122;DHT22;11730;51.248;22.534;2023-10-31T10:34:03;17.30;99.90
23122;DHT22;11730;51.248;22.534;2023-10-31T10:36:32;17.20;99.90
23122;DHT22;11730;51.248;22.534;2023-10-31T10:39:00;17.20;99.90
23122;DHT22;11730;51.248;22.534;2023-10-31T10:41:28;17.20;99.90
23122;DHT22;11730;51.248;22.534;2023-10-31T10:44:05;17.10;99.90
23122;DHT22;11730;51.248;22.534;2023-10-31T10:46:35;17.20;99.90
23122;DHT22;11730;51.248;22.534;2023-10-31T10:49:07;17.10;99.90
23122;DHT22;11730;51.248;22.534;2023-10-31T10:51:52;17.30;99.90
23122;DHT22;11730;51.248;22.534;2023-10-31T10:54:26;17.20;99.90
23122;DHT22;11730;51.248;22.534;2023-10-31T10:59:43;17.20;99.90
23122;DHT22;11730;51.248;22.534;2023-10-31T11:02:11;17.20;99.90
23122;DHT22;11730;51.248;22.534;2023-10-31T11:04:39;17.30;99.90
23122;DHT22;11730;51.248;22.534;2023-10-31T11:07:09;17.20;99.90
23122;DHT22;11730;51.248;22.534;2023-10-31T11:09:37;17.30;99.90
23122;DHT22;11730;51.248;22.534;2023-10-31T11:12:06;17.30;99.90
23122;DHT22;11730;51.248;22.534;2023-10-31T11:14:33;17.50;99.90
23122;DHT22;11730;51.248;22.534;2023-10-31T11:17:09;17.60;99.90
23122;DHT22;11730;51.248;22.534;2023-10-31T11:19:38;17.70;99.90
23122;DHT22;11730;51.248;22.534;2023-10-31T11:22:05;17.80;99.90
23122;DHT22;11730;51.248;22.534;2023-10-31T11:24:36;18.00;99.90
23122;DHT22;11730;51.248;22.534;2023-10-31T11:27:06;18.40;99.90
23122;DHT22;11730;51.248;22.534;2023-10-31T11:29:36;19.10;99.90
23122;DHT22;11730;51.248;22.534;2023-10-31T11:32:03;19.40;99.90
23122;DHT22;11730;51.248;22.534;2023-10-31T11:34:30;20.00;99.90
23122;DHT22;11730;51.248;22.534;2023-10-31T11:37:25;19.90;99.90
23122;DHT22;11730;51.248;22.534;2023-10-31T11:42:42;18.90;99.90
23122;DHT22;11730;51.248;22.534;2023-10-31T11:45:09;18.80;99.90
23122;DHT22;11730;51.248;22.534;2023-10-31T11:47:48;17.80;99.90
23122;DHT22;11730;51.248;22.534;2023-10-31T11:50:16;18.70;99.90
23122;DHT22;11730;51.248;22.534;2023-10-31T11:52:44;18.80;99.90
23122;DHT22;11730;51.248;22.534;2023-10-31T11:55:12;18.70;99.90
23122;DHT22;11730;51.248;22.534;2023-10-31T11:57:39;18.60;99.90
23122;DHT22;11730;51.248;22.534;2023-10-31T12:00:06;18.50;99.90
23122;DHT22;11730;51.248;22.534;2023-10-31T12:02:37;18.40;99.90
23122;DHT22;11730;51.248;22.534;2023-10-31T12:05:11;18.30;99.90
23122;DHT22;11730;51.248;22.534;2023-10-31T12:07:45;18.30;99.90
23122;DHT22;11730;51.248;22.534;2023-10-31T12:10:16;18.20;99.90
23122;DHT22;11730;51.248;22.534;2023-10-31T12:12:48;18.40;99.90
23122;DHT22;11730;51.248;22.534;2023-10-31T12:15:15;18.40;99.90
23122;DHT22;11730;51.248;22.534;2023-10-31T12:17:42;18.30;99.90
23122;DHT22;11730;51.248;22.534;2023-10-31T12:20:10;18.30;99.90
23122;DHT22;11730;51.248;22.534;2023-10-31T12:22:37;18.30;99.90
23122;DHT22;11730;51.248;22.534;2023-10-31T12:25:05;18.20;99.90
23122;DHT22;11730;51.248;22.534;2023-10-31T12:27:49;18.20;99.90
23122;DHT22;11730;51.248;22.534;2023-10-31T12:30:18;18.20;99.90
23122;DHT22;11730;51.248;22.534;2023-10-31T12:32:53;18.20;99.90
23122;DHT22;11730;51.248;22.534;2023-10-31T12:35:23;18.10;99.90
23122;DHT22;11730;51.248;22.534;2023-10-31T12:37:51;18.20;99.90
23122;DHT22;11730;51.248;22.534;2023-10-31T12:40:19;18.30;99.90
23122;DHT22;11730;51.248;22.534;2023-10-31T12:42:48;18.20;99.90
23122;DHT22;11730;51.248;22.534;2023-10-31T12:45:17;18.10;99.90
23122;DHT22;11730;51.248;22.534;2023-10-31T12:47:59;18.10;99.90
23122;DHT22;11730;51.248;22.534;2023-10-31T12:50:27;18.10;99.90
23122;DHT22;11730;51.248;22.534;2023-10-31T12:52:55;18.30;99.90
23122;DHT22;11730;51.248;22.534;2023-10-31T12:55:25;18.30;99.90
23122;DHT22;11730;51.248;22.534;2023-10-31T12:57:52;18.30;99.90
23122;DHT22;11730;51.248;22.534;2023-10-31T13:00:20;18.30;99.90
23122;DHT22;11730;51.248;22.534;2023-10-31T13:02:52;18.30;99.90
23122;DHT22;11730;51.248;22.534;2023-10-31T13:05:28;18.30;99.90
23122;DHT22;11730;51.248;22.534;2023-10-31T13:07:57;18.30;99.90
23122;DHT22;11730;51.248;22.534;2023-10-31T13:10:24;18.30;99.90
23122;DHT22;11730;51.248;22.534;2023-10-31T13:12:52;18.30;99.90
23122;DHT22;11730;51.248;22.534;2023-10-31T13:15:23;18.30;99.90
23122;DHT22;11730;51.248;22.534;2023-10-31T13:17:51;18.20;99.90
23122;DHT22;11730;51.248;22.534;2023-10-31T13:20:20;18.10;99.90
23122;DHT22;11730;51.248;22.534;2023-10-31T13:22:48;18.20;99.90
23122;DHT22;11730;51.248;22.534;2023-10-31T13:25:16;18.20;99.90
23122;DHT22;11730;51.248;22.534;2023-10-31T13:27:46;18.10;99.90
23122;DHT22;11730;51.248;22.534;2023-10-31T13:30:17;18.20;99.90
23122;DHT22;11730;51.248;22.534;2023-10-31T13:32:45;18.30;99.90
23122;DHT22;11730;51.248;22.534;2023-10-31T13:35:12;18.40;99.90
23122;DHT22;11730;51.248;22.534;2023-10-31T13:37:41;18.30;99.90
23122;DHT22;11730;51.248;22.534;2023-10-31T13:40:08;18.40;99.90
23122;DHT22;11730;51.248;22.534;2023-10-31T13:42:36;18.40;99.90
23122;DHT22;11730;51.248;22.534;2023-10-31T13:45:03;18.50;99.90
23122;DHT22;11730;51.248;22.534;2023-10-31T13:47:33;18.40;99.90
23122;DHT22;11730;51.248;22.534;2023-10-31T13:50:00;18.40;99.90
23122;DHT22;11730;51.248;22.534;2023-10-31T13:52:27;18.20;99.90
23122;DHT22;11730;51.248;22.534;2023-10-31T13:54:54;18.30;99.90
23122;DHT22;11730;51.248;22.534;2023-10-31T13:57:21;18.30;99.90
23122;DHT22;11730;51.248;22.534;2023-10-31T13:59:50;18.30;99.90
23122;DHT22;11730;51.248;22.534;2023-10-31T14:02:17;18.40;99.90
23122;DHT22;11730;51.248;22.534;2023-10-31T14:04:45;18.50;99.90
23122;DHT22;11730;51.248;22.534;2023-10-31T14:07:20;18.50;99.90
23122;DHT22;11730;51.248;22.534;2023-10-31T14:09:49;18.50;99.90
23122;DHT22;11730;51.248;22.534;2023-10-31T14:12:16;18.50;99.90
23122;DHT22;11730;51.248;22.534;2023-10-31T14:14:43;18.40;99.90
23122;DHT22;11730;51.248;22.534;2023-10-31T14:17:11;18.40;99.90
23122;DHT22;11730;51.248;22.534;2023-10-31T14:19:38;18.30;99.90
23122;DHT22;11730;51.248;22.534;2023-10-31T14:22:07;18.40;99.90
23122;DHT22;11730;51.248;22.534;2023-10-31T14:24:35;18.00;99.90
23122;DHT22;11730;51.248;22.534;2023-10-31T14:27:02;18.00;99.90
23122;DHT22;11730;51.248;22.534;2023-10-31T14:29:29;17.80;99.90
23122;DHT22;11730;51.248;22.534;2023-10-31T14:31:56;17.60;99.90
23122;DHT22;11730;51.248;22.534;2023-10-31T14:34:24;17.70;99.90
23122;DHT22;11730;51.248;22.534;2023-10-31T14:36:51;17.50;99.90
23122;DHT22;11730;51.248;22.534;2023-10-31T14:39:18;17.20;99.90
23122;DHT22;11730;51.248;22.534;2023-10-31T14:41:45;17.20;99.90
23122;DHT22;11730;51.248;22.534;2023-10-31T14:44:12;17.20;99.90
23122;DHT22;11730;51.248;22.534;2023-10-31T14:46:39;17.10;99.90
23122;DHT22;11730;51.248;22.534;2023-10-31T14:49:06;17.10;99.90
23122;DHT22;11730;51.248;22.534;2023-10-31T14:51:33;17.10;99.90
23122;DHT22;11730;51.248;22.534;2023-10-31T14:54:00;17.00;99.90
23122;DHT22;11730;51.248;22.534;2023-10-31T14:56:27;16.90;99.90
23122;DHT22;11730;51.248;22.534;2023-10-31T14:58:56;17.00;99.90
23122;DHT22;11730;51.248;22.534;2023-10-31T15:01:23;16.90;99.90
23122;DHT22;11730;51.248;22.534;2023-10-31T15:03:50;16.80;99.90
23122;DHT22;11730;51.248;22.534;2023-10-31T15:06:21;16.80;99.90
23122;DHT22;11730;51.248;22.534;2023-10-31T15:08:48;16.90;99.90
23122;DHT22;11730;51.248;22.534;2023-10-31T15:11:15;16.80;99.90
23122;DHT22;11730;51.248;22.534;2023-10-31T15:13:43;16.70;99.90
23122;DHT22;11730;51.248;22.534;2023-10-31T15:16:10;16.80;99.90
23122;DHT22;11730;51.248;22.534;2023-10-31T15:18:37;16.50;99.90
23122;DHT22;11730;51.248;22.534;2023-10-31T15:21:04;16.40;99.90
23122;DHT22;11730;51.248;22.534;2023-10-31T15:23:32;16.30;99.90
23122;DHT22;11730;51.248;22.534;2023-10-31T15:25:59;16.20;99.90
23122;DHT22;11730;51.248;22.534;2023-10-31T15:28:27;16.10;99.90
23122;DHT22;11730;51.248;22.534;2023-10-31T15:30:54;16.00;99.90
23122;DHT22;11730;51.248;22.534;2023-10-31T15:33:21;16.00;99.90